createdAt,value
2015-02-21T00:00:06.647Z,99738
2015-02-21T00:00:20.037Z,99738
2015-02-21T00:00:33.791Z,99735
2015-02-21T00:00:47.328Z,99751
2015-02-21T00:01:00.725Z,99738
2015-02-21T00:01:14.254Z,99742
2015-02-21T00:01:28.049Z,99751
2015-02-21T00:01:41.628Z,99745
2015-02-21T00:01:54.977Z,99739
2015-02-21T00:02:08.528Z,99742
2015-02-21T00:02:22.273Z,99735
2015-02-21T00:02:35.642Z,99742
2015-02-21T00:02:49.643Z,99739
2015-02-21T00:03:03.045Z,99735
2015-02-21T00:03:16.703Z,99735
2015-02-21T00:03:30.247Z,99735
2015-02-21T00:03:43.672Z,99739
2015-02-21T00:03:57.381Z,99729
2015-02-21T00:04:10.929Z,99748
2015-02-21T00:04:24.331Z,99745
2015-02-21T00:04:37.788Z,99745
2015-02-21T00:04:51.226Z,99723
2015-02-21T00:05:04.639Z,99726
2015-02-21T00:05:18.060Z,99726
2015-02-21T00:05:31.697Z,99742
2015-02-21T00:05:45.179Z,99732
2015-02-21T00:05:58.620Z,99742
2015-02-21T00:06:11.995Z,99736
2015-02-21T00:06:25.461Z,99732
2015-02-21T00:06:38.926Z,99742
2015-02-21T00:06:52.343Z,99745
2015-02-21T00:07:05.787Z,99732
2015-02-21T00:07:19.241Z,99736
2015-02-21T00:07:32.611Z,99726
2015-02-21T00:07:46.015Z,99729
2015-02-21T00:07:59.487Z,99726
2015-02-21T00:08:12.973Z,99742
2015-02-21T00:08:26.960Z,99739
2015-02-21T00:08:40.397Z,99735
2015-02-21T00:08:53.815Z,99729
2015-02-21T00:09:12.566Z,99735
2015-02-21T00:09:26.074Z,99729
2015-02-21T00:09:39.530Z,99742
2015-02-21T00:09:53.004Z,99723
2015-02-21T00:10:06.443Z,99726
2015-02-21T00:10:19.902Z,99729
2015-02-21T00:10:34.070Z,99717
2015-02-21T00:10:47.557Z,99720
2015-02-21T00:11:00.920Z,99732
2015-02-21T00:11:14.398Z,99723
2015-02-21T00:11:27.917Z,99729
2015-02-21T00:11:41.341Z,99732
2015-02-21T00:11:54.954Z,99739
2015-02-21T00:12:09.383Z,99723
2015-02-21T00:12:22.884Z,99720
2015-02-21T00:12:36.344Z,99717
2015-02-21T00:12:49.782Z,99717
2015-02-21T00:13:03.500Z,99714
2015-02-21T00:13:17.003Z,99723
2015-02-21T00:13:30.393Z,99720
2015-02-21T00:13:43.868Z,99720
2015-02-21T00:13:57.363Z,99717
2015-02-21T00:14:10.735Z,99723
2015-02-21T00:14:24.153Z,99717
2015-02-21T00:14:37.606Z,99717
2015-02-21T00:14:51.119Z,99714
2015-02-21T00:15:04.629Z,99714
2015-02-21T00:15:18.060Z,99711
2015-02-21T00:15:31.587Z,99717
2015-02-21T00:15:45.082Z,99723
2015-02-21T00:15:59.031Z,99720
2015-02-21T00:16:12.586Z,99723
2015-02-21T00:16:26.124Z,99717
2015-02-21T00:16:39.543Z,99726
2015-02-21T00:16:53.023Z,99705
2015-02-21T00:17:07.164Z,99705
2015-02-21T00:17:20.761Z,99717
2015-02-21T00:17:34.231Z,99714
2015-02-21T00:17:47.661Z,99708
2015-02-21T00:18:01.185Z,99711
2015-02-21T00:18:14.689Z,99720
2015-02-21T00:18:28.042Z,99720
2015-02-21T00:18:41.438Z,99705
2015-02-21T00:18:54.878Z,99702
2015-02-21T00:19:08.217Z,99717
2015-02-21T00:19:21.574Z,99708
2015-02-21T00:19:35.060Z,99717
2015-02-21T00:19:48.467Z,99708
2015-02-21T00:20:02.196Z,99711
2015-02-21T00:20:15.625Z,99708
2015-02-21T00:20:29.012Z,99711
2015-02-21T00:20:42.447Z,99702
2015-02-21T00:20:55.886Z,99718
2015-02-21T00:21:09.332Z,99708
2015-02-21T00:21:22.659Z,99721
2015-02-21T00:21:36.073Z,99702
2015-02-21T00:21:49.546Z,99699
2015-02-21T00:22:02.909Z,99699
2015-02-21T00:22:16.309Z,99696
2015-02-21T00:22:29.786Z,99699
2015-02-21T00:22:43.149Z,99711
2015-02-21T00:22:56.512Z,99702
2015-02-21T00:23:09.915Z,99696
2015-02-21T00:23:23.297Z,99699
2015-02-21T00:23:36.744Z,99709
2015-02-21T00:23:50.086Z,99705
2015-02-21T00:24:03.479Z,99702
2015-02-21T00:24:16.954Z,99702
2015-02-21T00:24:30.359Z,99709
2015-02-21T00:24:43.737Z,99705
2015-02-21T00:25:00.173Z,99690
2015-02-21T00:25:13.544Z,99705
2015-02-21T00:25:26.880Z,99696
2015-02-21T00:25:40.312Z,99693
2015-02-21T00:25:53.696Z,99702
2015-02-21T00:26:07.092Z,99696
2015-02-21T00:26:20.448Z,99693
2015-02-21T00:26:33.822Z,99693
2015-02-21T00:26:47.348Z,99696
2015-02-21T00:27:00.763Z,99699
2015-02-21T00:27:14.102Z,99709
2015-02-21T00:27:27.565Z,99703
2015-02-21T00:27:40.980Z,99687
2015-02-21T00:27:54.344Z,99703
2015-02-21T00:28:08.148Z,99703
2015-02-21T00:28:21.563Z,99696
2015-02-21T00:28:34.894Z,99696
2015-02-21T00:28:48.751Z,99690
2015-02-21T00:29:02.141Z,99690
2015-02-21T00:29:15.615Z,99703
2015-02-21T00:29:29.039Z,99697
2015-02-21T00:29:42.363Z,99690
2015-02-21T00:29:55.786Z,99697
2015-02-21T00:30:09.201Z,99687
2015-02-21T00:30:22.511Z,99690
2015-02-21T00:30:35.914Z,99684
2015-02-21T00:30:49.355Z,99700
2015-02-21T00:31:02.692Z,99690
2015-02-21T00:31:16.090Z,99715
2015-02-21T00:31:29.547Z,99690
2015-02-21T00:31:42.930Z,99697
2015-02-21T00:31:56.386Z,99687
2015-02-21T00:32:09.721Z,99691
2015-02-21T00:32:23.137Z,99691
2015-02-21T00:32:36.566Z,99691
2015-02-21T00:32:49.885Z,99694
2015-02-21T00:33:03.264Z,99688
2015-02-21T00:33:16.706Z,99691
2015-02-21T00:33:30.053Z,99691
2015-02-21T00:33:43.407Z,99681
2015-02-21T00:33:56.925Z,99678
2015-02-21T00:34:10.326Z,99688
2015-02-21T00:34:23.678Z,99678
2015-02-21T00:34:37.085Z,99688
2015-02-21T00:34:50.474Z,99688
2015-02-21T00:35:03.902Z,99678
2015-02-21T00:35:17.250Z,99694
2015-02-21T00:35:30.606Z,99681
2015-02-21T00:35:44.032Z,99675
2015-02-21T00:35:57.438Z,99688
2015-02-21T00:36:10.786Z,99678
2015-02-21T00:36:24.258Z,99685
2015-02-21T00:36:37.674Z,99675
2015-02-21T00:36:51.006Z,99691
2015-02-21T00:37:04.427Z,99685
2015-02-21T00:37:17.863Z,99681
2015-02-21T00:37:31.227Z,99678
2015-02-21T00:37:44.618Z,99678
2015-02-21T00:37:57.863Z,99681
2015-02-21T00:38:11.309Z,99681
2015-02-21T00:38:24.729Z,99682
2015-02-21T00:38:38.086Z,99675
2015-02-21T00:38:51.577Z,99685
2015-02-21T00:39:05.043Z,99688
2015-02-21T00:39:18.369Z,99682
2015-02-21T00:39:31.761Z,99672
2015-02-21T00:39:45.240Z,99675
2015-02-21T00:39:58.561Z,99682
2015-02-21T00:40:11.955Z,99675
2015-02-21T00:40:25.807Z,99663
2015-02-21T00:40:39.263Z,99672
2015-02-21T00:40:52.718Z,99676
2015-02-21T00:41:06.045Z,99679
2015-02-21T00:41:19.445Z,99685
2015-02-21T00:41:32.878Z,99669
2015-02-21T00:41:46.182Z,99676
2015-02-21T00:41:59.568Z,99679
2015-02-21T00:42:13.020Z,99660
2015-02-21T00:42:26.361Z,99682
2015-02-21T00:42:39.721Z,99672
2015-02-21T00:42:53.168Z,99669
2015-02-21T00:43:06.565Z,99660
2015-02-21T00:43:19.906Z,99666
2015-02-21T00:43:33.362Z,99679
2015-02-21T00:43:46.734Z,99672
2015-02-21T00:44:00.053Z,99669
2015-02-21T00:44:13.469Z,99663
2015-02-21T00:44:26.911Z,99666
2015-02-21T00:44:40.232Z,99670
2015-02-21T00:44:53.629Z,99670
2015-02-21T00:45:07.081Z,99673
2015-02-21T00:45:20.437Z,99670
2015-02-21T00:45:33.839Z,99666
2015-02-21T00:45:47.294Z,99651
2015-02-21T00:46:00.627Z,99670
2015-02-21T00:46:14.036Z,99660
2015-02-21T00:46:27.352Z,99667
2015-02-21T00:46:40.694Z,99667
2015-02-21T00:46:54.112Z,99670
2015-02-21T00:47:08.043Z,99670
2015-02-21T00:47:21.556Z,99660
2015-02-21T00:47:35.326Z,99670
2015-02-21T00:47:48.726Z,99657
2015-02-21T00:48:02.071Z,99657
2015-02-21T00:48:15.523Z,99667
2015-02-21T00:48:28.934Z,99651
2015-02-21T00:48:42.266Z,99664
2015-02-21T00:48:55.677Z,99667
2015-02-21T00:49:09.050Z,99660
2015-02-21T00:49:22.471Z,99651
2015-02-21T00:49:35.860Z,99651
2015-02-21T00:49:49.229Z,99654
2015-02-21T00:50:02.670Z,99657
2015-02-21T00:50:16.055Z,99667
2015-02-21T00:50:29.366Z,99664
2015-02-21T00:50:42.784Z,99660
2015-02-21T00:50:56.218Z,99670
2015-02-21T00:51:09.549Z,99664
2015-02-21T00:51:22.985Z,99661
2015-02-21T00:51:36.443Z,99654
2015-02-21T00:51:49.838Z,99667
2015-02-21T00:52:03.194Z,99646
2015-02-21T00:52:16.549Z,99661
2015-02-21T00:52:29.976Z,99657
2015-02-21T00:52:43.354Z,99664
2015-02-21T00:52:56.683Z,99654
2015-02-21T00:53:10.101Z,99640
2015-02-21T00:53:23.531Z,99651
2015-02-21T00:53:36.885Z,99661
2015-02-21T00:53:50.314Z,99648
2015-02-21T00:54:03.781Z,99648
2015-02-21T00:54:17.098Z,99651
2015-02-21T00:54:30.453Z,99651
2015-02-21T00:54:43.813Z,99654
2015-02-21T00:54:57.204Z,99648
2015-02-21T00:55:10.605Z,99657
2015-02-21T00:55:23.940Z,99654
2015-02-21T00:55:37.336Z,99658
2015-02-21T00:55:50.828Z,99651
2015-02-21T00:56:04.214Z,99654
2015-02-21T00:56:17.606Z,99651
2015-02-21T00:56:31.040Z,99646
2015-02-21T00:56:44.355Z,99651
2015-02-21T00:56:57.707Z,99646
2015-02-21T00:57:11.138Z,99648
2015-02-21T00:57:24.503Z,99646
2015-02-21T00:57:37.905Z,99646
2015-02-21T00:57:51.245Z,99646
2015-02-21T00:58:04.635Z,99655
2015-02-21T00:58:18.100Z,99648
2015-02-21T00:58:31.436Z,99640
2015-02-21T00:58:44.765Z,99651
2015-02-21T00:58:58.185Z,99654
2015-02-21T00:59:11.553Z,99646
2015-02-21T00:59:24.884Z,99640
2015-02-21T00:59:38.309Z,99646
2015-02-21T00:59:51.687Z,99640
2015-02-21T01:00:05.043Z,99643
2015-02-21T01:00:18.499Z,99654
2015-02-21T01:00:31.870Z,99631
2015-02-21T01:00:45.304Z,99640
2015-02-21T01:00:58.694Z,99646
2015-02-21T01:01:12.047Z,99651
2015-02-21T01:01:25.460Z,99658
2015-02-21T01:01:38.873Z,99643
2015-02-21T01:01:52.207Z,99646
2015-02-21T01:02:05.611Z,99655
2015-02-21T01:02:19.029Z,99655
2015-02-21T01:02:32.396Z,99637
2015-02-21T01:02:45.818Z,99640
2015-02-21T01:02:59.244Z,99655
2015-02-21T01:03:12.598Z,99637
2015-02-21T01:03:25.986Z,99640
2015-02-21T01:03:39.309Z,99640
2015-02-21T01:03:52.721Z,99643
2015-02-21T01:04:06.125Z,99643
2015-02-21T01:04:19.437Z,99631
2015-02-21T01:04:32.822Z,99643
2015-02-21T01:04:46.281Z,99644
2015-02-21T01:04:59.640Z,99644
2015-02-21T01:05:12.993Z,99644
2015-02-21T01:05:26.436Z,99652
2015-02-21T01:05:39.773Z,99637
2015-02-21T01:05:53.129Z,99628
2015-02-21T01:06:06.575Z,99634
2015-02-21T01:06:19.951Z,99631
2015-02-21T01:06:33.268Z,99640
2015-02-21T01:06:46.733Z,99631
2015-02-21T01:07:00.156Z,99634
2015-02-21T01:07:13.500Z,99631
2015-02-21T01:07:26.925Z,99631
2015-02-21T01:07:40.333Z,99637
2015-02-21T01:07:53.655Z,99637
2015-02-21T01:08:07.084Z,99637
2015-02-21T01:08:20.507Z,99640
2015-02-21T01:08:33.842Z,99628
2015-02-21T01:08:47.238Z,99631
2015-02-21T01:09:00.620Z,99640
2015-02-21T01:09:14.058Z,99628
2015-02-21T01:09:27.508Z,99637
2015-02-21T01:09:40.824Z,99631
2015-02-21T01:09:54.206Z,99628
2015-02-21T01:10:07.624Z,99640
2015-02-21T01:10:21.495Z,99625
2015-02-21T01:10:34.849Z,99625
2015-02-21T01:10:48.268Z,99637
2015-02-21T01:11:01.631Z,99637
2015-02-21T01:11:15.023Z,99640
2015-02-21T01:11:28.493Z,99631
2015-02-21T01:11:41.901Z,99634
2015-02-21T01:11:55.293Z,99631
2015-02-21T01:12:08.625Z,99628
2015-02-21T01:12:21.987Z,99625
2015-02-21T01:12:35.394Z,99625
2015-02-21T01:12:48.745Z,99622
2015-02-21T01:13:02.096Z,99628
2015-02-21T01:13:15.523Z,99622
2015-02-21T01:13:28.903Z,99634
2015-02-21T01:13:42.261Z,99622
2015-02-21T01:13:55.669Z,99622
2015-02-21T01:14:09.045Z,99634
2015-02-21T01:14:22.346Z,99631
2015-02-21T01:14:35.795Z,99634
2015-02-21T01:14:49.160Z,99625
2015-02-21T01:15:02.608Z,99628
2015-02-21T01:15:16.503Z,99628
2015-02-21T01:15:29.887Z,99638
2015-02-21T01:15:43.343Z,99631
2015-02-21T01:15:56.717Z,99637
2015-02-21T01:16:10.037Z,99610
2015-02-21T01:16:23.462Z,99631
2015-02-21T01:16:36.902Z,99628
2015-02-21T01:16:50.232Z,99616
2015-02-21T01:17:03.641Z,99631
2015-02-21T01:17:17.541Z,99634
2015-02-21T01:17:30.896Z,99628
2015-02-21T01:17:44.339Z,99628
2015-02-21T01:17:57.676Z,99631
2015-02-21T01:18:11.080Z,99625
2015-02-21T01:18:24.498Z,99628
2015-02-21T01:18:37.804Z,99622
2015-02-21T01:18:51.215Z,99616
2015-02-21T01:19:04.669Z,99631
2015-02-21T01:19:18.013Z,99634
2015-02-21T01:19:31.369Z,99631
2015-02-21T01:19:44.830Z,99622
2015-02-21T01:19:58.200Z,99613
2015-02-21T01:20:11.565Z,99616
2015-02-21T01:20:24.953Z,99625
2015-02-21T01:20:38.327Z,99619
2015-02-21T01:20:51.781Z,99610
2015-02-21T01:21:05.079Z,99619
2015-02-21T01:21:18.448Z,99613
2015-02-21T01:21:31.855Z,99619
2015-02-21T01:21:45.174Z,99622
2015-02-21T01:21:58.500Z,99634
2015-02-21T01:22:11.969Z,99610
2015-02-21T01:22:25.370Z,99628
2015-02-21T01:22:38.727Z,99607
2015-02-21T01:22:52.165Z,99616
2015-02-21T01:23:05.535Z,99616
2015-02-21T01:23:18.937Z,99619
2015-02-21T01:23:32.303Z,99628
2015-02-21T01:23:45.674Z,99628
2015-02-21T01:23:59.093Z,99616
2015-02-21T01:24:12.481Z,99616
2015-02-21T01:24:25.832Z,99619
2015-02-21T01:24:39.388Z,99619
2015-02-21T01:24:52.829Z,99613
2015-02-21T01:25:06.239Z,99613
2015-02-21T01:25:19.648Z,99601
2015-02-21T01:25:33.052Z,99607
2015-02-21T01:25:46.388Z,99613
2015-02-21T01:25:59.790Z,99616
2015-02-21T01:26:13.055Z,99616
2015-02-21T01:26:26.525Z,99601
2015-02-21T01:26:39.934Z,99610
2015-02-21T01:26:53.266Z,99610
2015-02-21T01:27:06.803Z,99629
2015-02-21T01:27:20.232Z,99622
2015-02-21T01:27:33.986Z,99616
2015-02-21T01:27:47.382Z,99613
2015-02-21T01:28:00.809Z,99601
2015-02-21T01:28:14.117Z,99598
2015-02-21T01:28:27.533Z,99610
2015-02-21T01:28:40.992Z,99607
2015-02-21T01:28:54.374Z,99613
2015-02-21T01:29:07.758Z,99622
2015-02-21T01:29:25.380Z,99613
2015-02-21T01:29:38.745Z,99598
2015-02-21T01:29:52.128Z,99604
2015-02-21T01:30:05.577Z,99607
2015-02-21T01:30:18.959Z,99607
2015-02-21T01:30:32.278Z,99613
2015-02-21T01:30:45.768Z,99610
2015-02-21T01:30:59.221Z,99613
2015-02-21T01:31:12.577Z,99604
2015-02-21T01:31:25.963Z,99598
2015-02-21T01:31:39.407Z,99601
2015-02-21T01:31:52.768Z,99601
2015-02-21T01:32:06.156Z,99604
2015-02-21T01:32:19.480Z,99601
2015-02-21T01:32:32.887Z,99598
2015-02-21T01:32:46.318Z,99604
2015-02-21T01:32:59.653Z,99598
2015-02-21T01:33:13.026Z,99586
2015-02-21T01:33:26.482Z,99595
2015-02-21T01:33:39.812Z,99604
2015-02-21T01:33:53.218Z,99595
2015-02-21T01:34:06.642Z,99595
2015-02-21T01:34:20.001Z,99592
2015-02-21T01:34:33.962Z,99583
2015-02-21T01:34:47.358Z,99598
2015-02-21T01:35:00.737Z,99595
2015-02-21T01:35:14.179Z,99598
2015-02-21T01:35:27.515Z,99586
2015-02-21T01:35:40.894Z,99592
2015-02-21T01:35:54.332Z,99601
2015-02-21T01:36:07.706Z,99595
2015-02-21T01:36:21.038Z,99589
2015-02-21T01:36:34.479Z,99598
2015-02-21T01:36:47.842Z,99589
2015-02-21T01:37:01.164Z,99583
2015-02-21T01:37:14.615Z,99586
2015-02-21T01:37:28.009Z,99574
2015-02-21T01:37:41.403Z,99589
2015-02-21T01:37:54.772Z,99583
2015-02-21T01:38:08.928Z,99589
2015-02-21T01:38:22.350Z,99586
2015-02-21T01:38:35.707Z,99595
2015-02-21T01:38:49.019Z,99580
2015-02-21T01:39:02.441Z,99568
2015-02-21T01:39:15.835Z,99574
2015-02-21T01:39:29.143Z,99577
2015-02-21T01:39:42.560Z,99580
2015-02-21T01:39:55.992Z,99586
2015-02-21T01:40:09.366Z,99577
2015-02-21T01:40:22.790Z,99586
2015-02-21T01:40:36.180Z,99571
2015-02-21T01:40:49.515Z,99580
2015-02-21T01:41:02.909Z,99568
2015-02-21T01:41:16.260Z,99589
2015-02-21T01:41:29.680Z,99577
2015-02-21T01:41:43.080Z,99571
2015-02-21T01:41:56.409Z,99567
2015-02-21T01:42:09.796Z,99580
2015-02-21T01:42:23.248Z,99556
2015-02-21T01:42:36.584Z,99561
2015-02-21T01:42:49.985Z,99574
2015-02-21T01:43:03.467Z,99571
2015-02-21T01:43:16.831Z,99567
2015-02-21T01:43:30.262Z,99571
2015-02-21T01:43:43.592Z,99564
2015-02-21T01:43:56.994Z,99568
2015-02-21T01:44:10.407Z,99571
2015-02-21T01:44:23.718Z,99553
2015-02-21T01:44:37.116Z,99564
2015-02-21T01:44:50.558Z,99574
2015-02-21T01:45:03.930Z,99564
2015-02-21T01:45:17.312Z,99553
2015-02-21T01:45:30.743Z,99557
2015-02-21T01:45:44.122Z,99547
2015-02-21T01:45:57.447Z,99550
2015-02-21T01:46:10.880Z,99562
2015-02-21T01:46:24.254Z,99557
2015-02-21T01:46:37.686Z,99547
2015-02-21T01:46:51.015Z,99554
2015-02-21T01:47:04.743Z,99550
2015-02-21T01:47:18.514Z,99557
2015-02-21T01:47:31.921Z,99547
2015-02-21T01:47:45.277Z,99550
2015-02-21T01:47:58.697Z,99557
2015-02-21T01:48:12.077Z,99544
2015-02-21T01:48:25.373Z,99557
2015-02-21T01:48:38.784Z,99554
2015-02-21T01:48:52.194Z,99547
2015-02-21T01:49:05.571Z,99544
2015-02-21T01:49:18.872Z,99538
2015-02-21T01:49:32.202Z,99541
2015-02-21T01:49:45.682Z,99541
2015-02-21T01:49:59.160Z,99550
2015-02-21T01:50:12.503Z,99550
2015-02-21T01:50:25.916Z,99557
2015-02-21T01:50:39.330Z,99541
2015-02-21T01:50:52.648Z,99544
2015-02-21T01:51:06.026Z,99538
2015-02-21T01:51:19.455Z,99554
2015-02-21T01:51:32.781Z,99544
2015-02-21T01:51:46.185Z,99550
2015-02-21T01:51:59.642Z,99538
2015-02-21T01:52:13.029Z,99550
2015-02-21T01:52:26.400Z,99562
2015-02-21T01:52:39.823Z,99547
2015-02-21T01:52:53.227Z,99538
2015-02-21T01:53:06.541Z,99541
2015-02-21T01:53:19.977Z,99541
2015-02-21T01:53:33.374Z,99535
2015-02-21T01:53:46.708Z,99545
2015-02-21T01:54:00.143Z,99538
2015-02-21T01:54:13.538Z,99545
2015-02-21T01:54:26.904Z,99545
2015-02-21T01:54:40.316Z,99551
2015-02-21T01:54:53.670Z,99545
2015-02-21T01:55:07.103Z,99545
2015-02-21T01:55:20.465Z,99535
2015-02-21T01:55:33.779Z,99535
2015-02-21T01:55:47.205Z,99535
2015-02-21T01:56:00.625Z,99541
2015-02-21T01:56:13.958Z,99535
2015-02-21T01:56:27.376Z,99535
2015-02-21T01:56:40.829Z,99538
2015-02-21T01:56:54.159Z,99514
2015-02-21T01:57:07.525Z,99532
2015-02-21T01:57:20.966Z,99523
2015-02-21T01:57:34.317Z,99529
2015-02-21T01:57:47.727Z,99541
2015-02-21T01:58:01.050Z,99529
2015-02-21T01:58:14.411Z,99535
2015-02-21T01:58:27.842Z,99529
2015-02-21T01:58:41.186Z,99541
2015-02-21T01:58:54.605Z,99538
2015-02-21T01:59:08.088Z,99517
2015-02-21T01:59:21.409Z,99535
2015-02-21T01:59:34.740Z,99541
2015-02-21T01:59:48.185Z,99523
2015-02-21T02:00:01.568Z,99523
2015-02-21T02:00:14.882Z,99520
2015-02-21T02:00:28.297Z,99517
2015-02-21T02:00:41.649Z,99523
2015-02-21T02:00:55.092Z,99526
2015-02-21T02:01:08.459Z,99526
2015-02-21T02:01:21.876Z,99523
2015-02-21T02:01:35.324Z,99514
2015-02-21T02:01:48.692Z,99526
2015-02-21T02:02:02.035Z,99517
2015-02-21T02:02:15.486Z,99523
2015-02-21T02:02:28.918Z,99517
2015-02-21T02:02:42.232Z,99529
2015-02-21T02:02:55.661Z,99517
2015-02-21T02:03:09.087Z,99523
2015-02-21T02:03:22.480Z,99511
2015-02-21T02:03:35.866Z,99529
2015-02-21T02:03:49.252Z,99523
2015-02-21T02:04:02.697Z,99514
2015-02-21T02:04:16.085Z,99505
2015-02-21T02:04:29.803Z,99508
2015-02-21T02:04:43.214Z,99511
2015-02-21T02:04:56.632Z,99508
2015-02-21T02:05:09.939Z,99514
2015-02-21T02:05:23.327Z,99508
2015-02-21T02:05:36.769Z,99511
2015-02-21T02:05:50.132Z,99502
2015-02-21T02:06:03.514Z,99501
2015-02-21T02:06:17.546Z,99514
2015-02-21T02:06:30.995Z,99508
2015-02-21T02:06:44.412Z,99508
2015-02-21T02:06:57.722Z,99508
2015-02-21T02:07:11.122Z,99508
2015-02-21T02:07:24.520Z,99498
2015-02-21T02:07:37.838Z,99501
2015-02-21T02:07:51.210Z,99508
2015-02-21T02:08:04.662Z,99508
2015-02-21T02:08:18.010Z,99495
2015-02-21T02:08:31.359Z,99502
2015-02-21T02:08:44.775Z,99505
2015-02-21T02:08:58.145Z,99502
2015-02-21T02:09:11.547Z,99495
2015-02-21T02:09:24.850Z,99505
2015-02-21T02:09:38.219Z,99502
2015-02-21T02:09:51.680Z,99502
2015-02-21T02:10:04.989Z,99499
2015-02-21T02:10:18.331Z,99499
2015-02-21T02:10:31.814Z,99499
2015-02-21T02:10:45.169Z,99492
2015-02-21T02:10:58.499Z,99499
2015-02-21T02:11:11.927Z,99499
2015-02-21T02:11:25.333Z,99496
2015-02-21T02:11:38.627Z,99496
2015-02-21T02:11:52.056Z,99499
2015-02-21T02:12:05.470Z,99492
2015-02-21T02:12:18.952Z,99496
2015-02-21T02:12:32.473Z,99502
2015-02-21T02:12:45.781Z,99496
2015-02-21T02:12:59.216Z,99493
2015-02-21T02:13:12.605Z,99499
2015-02-21T02:13:25.903Z,99496
2015-02-21T02:13:39.307Z,99490
2015-02-21T02:13:52.704Z,99502
2015-02-21T02:14:06.027Z,99496
2015-02-21T02:14:19.422Z,99499
2015-02-21T02:14:32.868Z,99483
2015-02-21T02:14:46.245Z,99487
2015-02-21T02:14:59.658Z,99480
2015-02-21T02:15:13.070Z,99490
2015-02-21T02:15:26.417Z,99490
2015-02-21T02:15:39.769Z,99480
2015-02-21T02:15:53.145Z,99493
2015-02-21T02:16:06.508Z,99490
2015-02-21T02:16:19.874Z,99483
2015-02-21T02:16:33.347Z,99480
2015-02-21T02:16:46.774Z,99486
2015-02-21T02:17:00.118Z,99487
2015-02-21T02:17:13.952Z,99480
2015-02-21T02:17:27.371Z,99490
2015-02-21T02:17:40.752Z,99496
2015-02-21T02:17:54.116Z,99483
2015-02-21T02:18:07.449Z,99490
2015-02-21T02:18:20.879Z,99496
2015-02-21T02:18:34.271Z,99487
2015-02-21T02:18:47.614Z,99484
2015-02-21T02:19:01.059Z,99468
2015-02-21T02:19:14.530Z,99487
2015-02-21T02:19:27.869Z,99474
2015-02-21T02:19:41.277Z,99481
2015-02-21T02:19:54.725Z,99481
2015-02-21T02:20:08.026Z,99471
2015-02-21T02:20:21.398Z,99471
2015-02-21T02:20:34.755Z,99474
2015-02-21T02:20:48.144Z,99471
2015-02-21T02:21:01.914Z,99474
2015-02-21T02:21:15.218Z,99471
2015-02-21T02:21:28.643Z,99477
2015-02-21T02:21:42.141Z,99474
2015-02-21T02:21:55.511Z,99474
2015-02-21T02:22:08.858Z,99463
2015-02-21T02:22:28.676Z,99478
2015-02-21T02:22:42.020Z,99484
2015-02-21T02:22:55.370Z,99471
2015-02-21T02:23:08.799Z,99481
2015-02-21T02:23:22.181Z,99474
2015-02-21T02:23:35.589Z,99477
2015-02-21T02:23:48.940Z,99471
2015-02-21T02:24:02.320Z,99471
2015-02-21T02:24:15.751Z,99484
2015-02-21T02:24:29.119Z,99474
2015-02-21T02:24:42.455Z,99474
2015-02-21T02:24:55.892Z,99471
2015-02-21T02:25:09.233Z,99471
2015-02-21T02:25:22.543Z,99460
2015-02-21T02:25:35.899Z,99463
2015-02-21T02:25:49.270Z,99466
2015-02-21T02:26:02.580Z,99457
2015-02-21T02:26:15.998Z,99466
2015-02-21T02:26:29.436Z,99463
2015-02-21T02:26:42.897Z,99460
2015-02-21T02:26:56.251Z,99466
2015-02-21T02:27:09.578Z,99474
2015-02-21T02:27:23.014Z,99460
2015-02-21T02:27:36.409Z,99463
2015-02-21T02:27:49.699Z,99477
2015-02-21T02:28:03.115Z,99477
2015-02-21T02:28:16.519Z,99451
2015-02-21T02:28:29.819Z,99471
2015-02-21T02:28:43.218Z,99454
2015-02-21T02:28:56.659Z,99460
2015-02-21T02:29:09.998Z,99451
2015-02-21T02:29:23.392Z,99451
2015-02-21T02:29:36.696Z,99463
2015-02-21T02:29:50.111Z,99457
2015-02-21T02:30:03.525Z,99454
2015-02-21T02:30:16.851Z,99454
2015-02-21T02:30:30.238Z,99457
2015-02-21T02:30:43.676Z,99466
2015-02-21T02:30:57.025Z,99454
2015-02-21T02:31:10.388Z,99460
2015-02-21T02:31:23.845Z,99463
2015-02-21T02:31:37.187Z,99448
2015-02-21T02:31:50.544Z,99457
2015-02-21T02:32:03.924Z,99451
2015-02-21T02:32:17.311Z,99448
2015-02-21T02:32:30.765Z,99448
2015-02-21T02:32:44.075Z,99460
2015-02-21T02:32:57.467Z,99451
2015-02-21T02:33:10.904Z,99454
2015-02-21T02:33:24.266Z,99442
2015-02-21T02:33:37.672Z,99445
2015-02-21T02:33:51.155Z,99445
2015-02-21T02:34:04.516Z,99457
2015-02-21T02:34:17.826Z,99451
2015-02-21T02:34:31.244Z,99442
2015-02-21T02:34:44.633Z,99445
2015-02-21T02:34:58.009Z,99454
2015-02-21T02:35:11.360Z,99451
2015-02-21T02:35:24.697Z,99445
2015-02-21T02:35:38.111Z,99454
2015-02-21T02:35:51.469Z,99448
2015-02-21T02:36:04.778Z,99451
2015-02-21T02:36:18.200Z,99448
2015-02-21T02:36:31.599Z,99439
2015-02-21T02:36:45.532Z,99448
2015-02-21T02:36:58.966Z,99439
2015-02-21T02:37:12.372Z,99442
2015-02-21T02:37:25.676Z,99445
2015-02-21T02:37:39.076Z,99442
2015-02-21T02:37:52.546Z,99448
2015-02-21T02:38:05.873Z,99433
2015-02-21T02:38:19.240Z,99442
2015-02-21T02:38:32.663Z,99445
2015-02-21T02:38:46.001Z,99442
2015-02-21T02:38:59.335Z,99451
2015-02-21T02:39:12.797Z,99451
2015-02-21T02:39:26.167Z,99439
2015-02-21T02:39:39.494Z,99442
2015-02-21T02:39:52.958Z,99430
2015-02-21T02:40:06.325Z,99442
2015-02-21T02:40:19.635Z,99426
2015-02-21T02:40:33.040Z,99436
2015-02-21T02:40:46.390Z,99433
2015-02-21T02:40:59.817Z,99439
2015-02-21T02:41:13.185Z,99436
2015-02-21T02:41:26.519Z,99430
2015-02-21T02:41:39.945Z,99445
2015-02-21T02:41:53.334Z,99442
2015-02-21T02:42:06.650Z,99439
2015-02-21T02:42:20.099Z,99427
2015-02-21T02:42:33.695Z,99436
2015-02-21T02:42:47.046Z,99436
2015-02-21T02:43:00.443Z,99442
2015-02-21T02:43:13.905Z,99436
2015-02-21T02:43:27.243Z,99436
2015-02-21T02:43:40.620Z,99430
2015-02-21T02:43:53.992Z,99424
2015-02-21T02:44:07.411Z,99439
2015-02-21T02:44:20.808Z,99433
2015-02-21T02:44:34.127Z,99427
2015-02-21T02:44:47.528Z,99427
2015-02-21T02:45:00.976Z,99430
2015-02-21T02:45:14.342Z,99430
2015-02-21T02:45:27.754Z,99430
2015-02-21T02:45:41.203Z,99427
2015-02-21T02:45:54.540Z,99436
2015-02-21T02:46:07.887Z,99420
2015-02-21T02:46:21.274Z,99417
2015-02-21T02:46:34.667Z,99417
2015-02-21T02:46:48.120Z,99414
2015-02-21T02:47:01.851Z,99427
2015-02-21T02:47:15.893Z,99414
2015-02-21T02:47:29.351Z,99424
2015-02-21T02:47:42.678Z,99424
2015-02-21T02:47:56.035Z,99421
2015-02-21T02:48:09.518Z,99421
2015-02-21T02:48:22.902Z,99421
2015-02-21T02:48:36.244Z,99421
2015-02-21T02:48:49.728Z,99418
2015-02-21T02:49:03.035Z,99412
2015-02-21T02:49:16.332Z,99412
2015-02-21T02:49:29.747Z,99421
2015-02-21T02:49:43.176Z,99415
2015-02-21T02:49:56.484Z,99421
2015-02-21T02:50:09.869Z,99412
2015-02-21T02:50:23.300Z,99412
2015-02-21T02:50:36.614Z,99411
2015-02-21T02:50:49.953Z,99411
2015-02-21T02:51:03.417Z,99421
2015-02-21T02:51:16.773Z,99409
2015-02-21T02:51:30.160Z,99421
2015-02-21T02:51:43.647Z,99405
2015-02-21T02:51:57.051Z,99412
2015-02-21T02:52:10.480Z,99408
2015-02-21T02:52:23.785Z,99405
2015-02-21T02:52:37.153Z,99402
2015-02-21T02:52:50.667Z,99424
2015-02-21T02:53:03.993Z,99415